sensor_id;sensor_type;location;lat;lon;timestamp;temperature;humidity
35559;DHT22;21661;50.794;-1.066;2022-08-01T00:00:41;20.00;99.90
35559;DHT22;21661;50.794;-1.066;2022-08-01T00:03:07;19.90;99.90
35559;DHT22;21661;50.794;-1.066;2022-08-01T00:05:33;19.90;99.90
35559;DHT22;21661;50.794;-1.066;2022-08-01T00:07:59;19.90;99.90
35559;DHT22;21661;50.794;-1.066;2022-08-01T00:10:24;19.90;99.90
35559;DHT22;21661;50.794;-1.066;2022-08-01T00:12:50;19.80;99.90
35559;DHT22;21661;50.794;-1.066;2022-08-01T00:15:17;19.70;99.90
35559;DHT22;21661;50.794;-1.066;2022-08-01T00:17:43;19.70;99.90
35559;DHT22;21661;50.794;-1.066;2022-08-01T00:20:11;19.70;99.90
35559;DHT22;21661;50.794;-1.066;2022-08-01T00:22:36;19.70;99.90
35559;DHT22;21661;50.794;-1.066;2022-08-01T00:25:04;19.70;99.90
35559;DHT22;21661;50.794;-1.066;2022-08-01T00:27:30;19.70;99.90
35559;DHT22;21661;50.794;-1.066;2022-08-01T00:29:56;19.70;99.90
35559;DHT22;21661;50.794;-1.066;2022-08-01T00:32:22;19.60;99.90
35559;DHT22;21661;50.794;-1.066;2022-08-01T00:34:48;19.60;99.90
35559;DHT22;21661;50.794;-1.066;2022-08-01T00:37:13;19.60;99.90
35559;DHT22;21661;50.794;-1.066;2022-08-01T00:39:39;19.50;99.90
35559;DHT22;21661;50.794;-1.066;2022-08-01T00:42:09;19.50;99.90
35559;DHT22;21661;50.794;-1.066;2022-08-01T00:44:35;19.50;99.90
35559;DHT22;21661;50.794;-1.066;2022-08-01T00:47:02;19.50;99.90
35559;DHT22;21661;50.794;-1.066;2022-08-01T00:49:28;19.40;99.90
35559;DHT22;21661;50.794;-1.066;2022-08-01T00:51:54;19.40;99.90
35559;DHT22;21661;50.794;-1.066;2022-08-01T00:54:20;19.40;99.90
35559;DHT22;21661;50.794;-1.066;2022-08-01T00:56:46;19.40;99.90
35559;DHT22;21661;50.794;-1.066;2022-08-01T00:59:14;19.30;99.90
35559;DHT22;21661;50.794;-1.066;2022-08-01T01:01:42;19.30;99.90
35559;DHT22;21661;50.794;-1.066;2022-08-01T01:04:08;19.30;99.90
35559;DHT22;21661;50.794;-1.066;2022-08-01T01:14:44;19.30;99.90
35559;DHT22;21661;50.794;-1.066;2022-08-01T01:17:16;19.30;99.90
35559;DHT22;21661;50.794;-1.066;2022-08-01T01:19:48;19.30;99.90
35559;DHT22;21661;50.794;-1.066;2022-08-01T01:22:36;19.20;99.90
35559;DHT22;21661;50.794;-1.066;2022-08-01T01:27:46;19.30;99.90
35559;DHT22;21661;50.794;-1.066;2022-08-01T01:30:12;19.30;99.90
35559;DHT22;21661;50.794;-1.066;2022-08-01T01:32:40;19.30;99.90
35559;DHT22;21661;50.794;-1.066;2022-08-01T01:35:15;19.20;99.90
35559;DHT22;21661;50.794;-1.066;2022-08-01T01:37:43;19.20;99.90
35559;DHT22;21661;50.794;-1.066;2022-08-01T01:40:11;19.10;99.90
35559;DHT22;21661;50.794;-1.066;2022-08-01T01:42:39;19.10;99.90
35559;DHT22;21661;50.794;-1.066;2022-08-01T01:45:08;19.10;99.90
35559;DHT22;21661;50.794;-1.066;2022-08-01T01:47:36;19.10;99.90
35559;DHT22;21661;50.794;-1.066;2022-08-01T01:50:04;19.10;99.90
35559;DHT22;21661;50.794;-1.066;2022-08-01T01:52:32;19.10;99.90
35559;DHT22;21661;50.794;-1.066;2022-08-01T01:54:59;19.10;99.90
35559;DHT22;21661;50.794;-1.066;2022-08-01T01:57:27;19.10;99.90
35559;DHT22;21661;50.794;-1.066;2022-08-01T01:59:54;19.00;99.90
35559;DHT22;21661;50.794;-1.066;2022-08-01T02:02:22;19.00;99.90
35559;DHT22;21661;50.794;-1.066;2022-08-01T02:04:48;19.00;99.90
35559;DHT22;21661;50.794;-1.066;2022-08-01T02:07:19;18.90;99.90
35559;DHT22;21661;50.794;-1.066;2022-08-01T02:09:46;18.90;99.90
35559;DHT22;21661;50.794;-1.066;2022-08-01T02:12:12;18.90;99.90
35559;DHT22;21661;50.794;-1.066;2022-08-01T02:14:40;18.90;99.90
35559;DHT22;21661;50.794;-1.066;2022-08-01T02:17:09;18.90;99.90
35559;DHT22;21661;50.794;-1.066;2022-08-01T02:19:36;18.90;99.90
35559;DHT22;21661;50.794;-1.066;2022-08-01T02:22:06;18.90;99.90
35559;DHT22;21661;50.794;-1.066;2022-08-01T02:24:54;18.90;99.90
35559;DHT22;21661;50.794;-1.066;2022-08-01T02:27:26;18.90;99.90
35559;DHT22;21661;50.794;-1.066;2022-08-01T02:30:00;18.90;99.90
35559;DHT22;21661;50.794;-1.066;2022-08-01T02:32:31;18.80;99.90
35559;DHT22;21661;50.794;-1.066;2022-08-01T02:34:59;18.80;99.90
35559;DHT22;21661;50.794;-1.066;2022-08-01T02:37:27;18.80;99.90
35559;DHT22;21661;50.794;-1.066;2022-08-01T02:39:54;18.80;99.90
35559;DHT22;21661;50.794;-1.066;2022-08-01T02:42:23;18.80;99.90
35559;DHT22;21661;50.794;-1.066;2022-08-01T02:44:52;18.80;99.90
35559;DHT22;21661;50.794;-1.066;2022-08-01T02:47:20;18.80;99.90
35559;DHT22;21661;50.794;-1.066;2022-08-01T02:49:49;18.80;99.90
35559;DHT22;21661;50.794;-1.066;2022-08-01T02:52:16;18.90;99.90
35559;DHT22;21661;50.794;-1.066;2022-08-01T02:54:48;18.90;99.90
35559;DHT22;21661;50.794;-1.066;2022-08-01T02:57:16;18.90;99.90
35559;DHT22;21661;50.794;-1.066;2022-08-01T02:59:43;18.80;99.90
35559;DHT22;21661;50.794;-1.066;2022-08-01T03:02:10;18.80;99.90
35559;DHT22;21661;50.794;-1.066;2022-08-01T03:04:38;18.80;99.90
35559;DHT22;21661;50.794;-1.066;2022-08-01T03:07:06;18.90;99.90
35559;DHT22;21661;50.794;-1.066;2022-08-01T03:09:37;18.90;99.90
35559;DHT22;21661;50.794;-1.066;2022-08-01T03:12:04;18.80;99.90
35559;DHT22;21661;50.794;-1.066;2022-08-01T03:14:34;18.90;99.90
35559;DHT22;21661;50.794;-1.066;2022-08-01T03:17:01;18.90;99.90
35559;DHT22;21661;50.794;-1.066;2022-08-01T03:19:29;19.00;99.90
35559;DHT22;21661;50.794;-1.066;2022-08-01T03:21:56;18.90;99.90
35559;DHT22;21661;50.794;-1.066;2022-08-01T03:24:25;19.00;99.90
35559;DHT22;21661;50.794;-1.066;2022-08-01T03:26:52;19.00;99.90
35559;DHT22;21661;50.794;-1.066;2022-08-01T03:29:22;19.00;99.90
35559;DHT22;21661;50.794;-1.066;2022-08-01T03:31:50;19.00;99.90
35559;DHT22;21661;50.794;-1.066;2022-08-01T03:34:16;19.00;99.90
35559;DHT22;21661;50.794;-1.066;2022-08-01T03:36:50;19.00;99.90
35559;DHT22;21661;50.794;-1.066;2022-08-01T03:39:18;19.00;99.90
35559;DHT22;21661;50.794;-1.066;2022-08-01T03:41:51;19.00;99.90
35559;DHT22;21661;50.794;-1.066;2022-08-01T03:44:24;18.90;99.90
35559;DHT22;21661;50.794;-1.066;2022-08-01T03:46:59;18.90;99.90
35559;DHT22;21661;50.794;-1.066;2022-08-01T03:49:30;18.90;99.90
35559;DHT22;21661;50.794;-1.066;2022-08-01T03:51:57;18.80;99.90
35559;DHT22;21661;50.794;-1.066;2022-08-01T03:54:25;18.80;99.90
35559;DHT22;21661;50.794;-1.066;2022-08-01T03:56:52;18.80;99.90
35559;DHT22;21661;50.794;-1.066;2022-08-01T03:59:18;18.80;99.90
35559;DHT22;21661;50.794;-1.066;2022-08-01T04:01:46;18.70;99.90
35559;DHT22;21661;50.794;-1.066;2022-08-01T04:04:13;18.70;99.90
35559;DHT22;21661;50.794;-1.066;2022-08-01T04:06:40;18.70;99.90
35559;DHT22;21661;50.794;-1.066;2022-08-01T04:09:08;18.70;99.90
35559;DHT22;21661;50.794;-1.066;2022-08-01T04:11:34;18.60;99.90
35559;DHT22;21661;50.794;-1.066;2022-08-01T04:14:00;18.70;99.90
35559;DHT22;21661;50.794;-1.066;2022-08-01T04:16:26;18.60;99.90
35559;DHT22;21661;50.794;-1.066;2022-08-01T04:18:52;18.60;99.90
35559;DHT22;21661;50.794;-1.066;2022-08-01T04:21:20;18.60;99.90
35559;DHT22;21661;50.794;-1.066;2022-08-01T04:23:48;18.50;99.90
35559;DHT22;21661;50.794;-1.066;2022-08-01T04:26:16;18.50;99.90
35559;DHT22;21661;50.794;-1.066;2022-08-01T04:28:43;18.60;99.90
35559;DHT22;21661;50.794;-1.066;2022-08-01T04:31:10;18.60;99.90
35559;DHT22;21661;50.794;-1.066;2022-08-01T04:33:40;18.60;99.90
35559;DHT22;21661;50.794;-1.066;2022-08-01T04:36:06;18.60;99.90
35559;DHT22;21661;50.794;-1.066;2022-08-01T04:38:36;18.60;99.90
35559;DHT22;21661;50.794;-1.066;2022-08-01T04:41:02;18.60;99.90
35559;DHT22;21661;50.794;-1.066;2022-08-01T04:43:28;18.60;99.90
35559;DHT22;21661;50.794;-1.066;2022-08-01T04:45:55;18.60;99.90
35559;DHT22;21661;50.794;-1.066;2022-08-01T04:48:21;18.60;99.90
35559;DHT22;21661;50.794;-1.066;2022-08-01T04:50:50;18.60;99.90
35559;DHT22;21661;50.794;-1.066;2022-08-01T04:53:19;18.70;99.90
35559;DHT22;21661;50.794;-1.066;2022-08-01T04:55:47;18.70;99.90
35559;DHT22;21661;50.794;-1.066;2022-08-01T04:58:14;18.70;99.90
35559;DHT22;21661;50.794;-1.066;2022-08-01T05:00:40;18.70;99.90
35559;DHT22;21661;50.794;-1.066;2022-08-01T05:03:06;18.80;99.90
35559;DHT22;21661;50.794;-1.066;2022-08-01T05:05:31;18.80;99.90
35559;DHT22;21661;50.794;-1.066;2022-08-01T05:07:57;18.80;99.90
35559;DHT22;21661;50.794;-1.066;2022-08-01T05:10:23;18.80;99.90
35559;DHT22;21661;50.794;-1.066;2022-08-01T05:12:49;18.90;99.90
35559;DHT22;21661;50.794;-1.066;2022-08-01T05:15:14;18.90;99.90
35559;DHT22;21661;50.794;-1.066;2022-08-01T05:17:40;19.00;99.90
35559;DHT22;21661;50.794;-1.066;2022-08-01T05:20:07;19.10;99.90
35559;DHT22;21661;50.794;-1.066;2022-08-01T05:22:33;19.20;99.90
35559;DHT22;21661;50.794;-1.066;2022-08-01T05:24:59;19.20;99.90
35559;DHT22;21661;50.794;-1.066;2022-08-01T05:27:25;19.30;99.90
35559;DHT22;21661;50.794;-1.066;2022-08-01T05:29:51;19.30;99.90
35559;DHT22;21661;50.794;-1.066;2022-08-01T05:32:17;19.30;99.90
35559;DHT22;21661;50.794;-1.066;2022-08-01T05:34:43;19.40;99.90
35559;DHT22;21661;50.794;-1.066;2022-08-01T05:37:09;19.40;99.90
35559;DHT22;21661;50.794;-1.066;2022-08-01T05:39:35;19.40;99.90
35559;DHT22;21661;50.794;-1.066;2022-08-01T05:42:01;19.50;99.90
35559;DHT22;21661;50.794;-1.066;2022-08-01T05:44:27;19.50;99.90
35559;DHT22;21661;50.794;-1.066;2022-08-01T05:46:52;19.50;99.90
35559;DHT22;21661;50.794;-1.066;2022-08-01T05:49:18;19.50;99.90
35559;DHT22;21661;50.794;-1.066;2022-08-01T05:51:44;19.60;99.90
35559;DHT22;21661;50.794;-1.066;2022-08-01T05:54:10;19.60;99.90
35559;DHT22;21661;50.794;-1.066;2022-08-01T05:56:35;19.60;99.90
35559;DHT22;21661;50.794;-1.066;2022-08-01T05:59:01;19.70;99.90
35559;DHT22;21661;50.794;-1.066;2022-08-01T06:01:27;19.70;99.90
35559;DHT22;21661;50.794;-1.066;2022-08-01T06:03:52;19.70;99.90
35559;DHT22;21661;50.794;-1.066;2022-08-01T06:06:20;19.80;99.90
35559;DHT22;21661;50.794;-1.066;2022-08-01T06:08:46;19.80;99.90
35559;DHT22;21661;50.794;-1.066;2022-08-01T06:11:12;19.90;99.90
35559;DHT22;21661;50.794;-1.066;2022-08-01T06:13:38;19.90;99.90
35559;DHT22;21661;50.794;-1.066;2022-08-01T06:16:03;19.90;99.90
35559;DHT22;21661;50.794;-1.066;2022-08-01T06:18:29;20.00;99.90
35559;DHT22;21661;50.794;-1.066;2022-08-01T06:20:55;20.10;99.90
35559;DHT22;21661;50.794;-1.066;2022-08-01T06:23:21;20.10;99.90
35559;DHT22;21661;50.794;-1.066;2022-08-01T06:25:47;20.10;99.90
35559;DHT22;21661;50.794;-1.066;2022-08-01T06:28:13;20.10;99.90
35559;DHT22;21661;50.794;-1.066;2022-08-01T06:30:38;20.10;99.90
35559;DHT22;21661;50.794;-1.066;2022-08-01T06:33:04;20.10;99.90
35559;DHT22;21661;50.794;-1.066;2022-08-01T06:35:31;20.20;99.90
35559;DHT22;21661;50.794;-1.066;2022-08-01T06:37:57;20.20;99.90
35559;DHT22;21661;50.794;-1.066;2022-08-01T06:40:23;20.20;99.90
35559;DHT22;21661;50.794;-1.066;2022-08-01T06:42:49;20.20;99.90
35559;DHT22;21661;50.794;-1.066;2022-08-01T06:45:15;20.20;99.90
35559;DHT22;21661;50.794;-1.066;2022-08-01T06:47:43;20.20;99.90
35559;DHT22;21661;50.794;-1.066;2022-08-01T06:50:10;20.20;99.90
35559;DHT22;21661;50.794;-1.066;2022-08-01T06:52:36;20.30;99.90
35559;DHT22;21661;50.794;-1.066;2022-08-01T06:55:04;20.30;99.90
35559;DHT22;21661;50.794;-1.066;2022-08-01T06:57:30;20.30;99.90
35559;DHT22;21661;50.794;-1.066;2022-08-01T06:59:56;20.40;99.90
35559;DHT22;21661;50.794;-1.066;2022-08-01T07:02:22;20.40;99.90
35559;DHT22;21661;50.794;-1.066;2022-08-01T07:04:48;20.50;99.90
35559;DHT22;21661;50.794;-1.066;2022-08-01T07:07:14;20.40;99.90
35559;DHT22;21661;50.794;-1.066;2022-08-01T07:09:39;20.40;99.90
35559;DHT22;21661;50.794;-1.066;2022-08-01T07:12:07;20.50;99.90
35559;DHT22;21661;50.794;-1.066;2022-08-01T07:14:32;20.60;99.90
35559;DHT22;21661;50.794;-1.066;2022-08-01T07:16:58;20.50;99.90
35559;DHT22;21661;50.794;-1.066;2022-08-01T07:19:23;20.50;99.90
35559;DHT22;21661;50.794;-1.066;2022-08-01T07:21:49;20.50;99.90
35559;DHT22;21661;50.794;-1.066;2022-08-01T07:24:16;20.50;99.90
35559;DHT22;21661;50.794;-1.066;2022-08-01T07:26:43;20.50;99.90
35559;DHT22;21661;50.794;-1.066;2022-08-01T07:29:09;20.50;99.90
35559;DHT22;21661;50.794;-1.066;2022-08-01T07:31:35;20.50;99.90
35559;DHT22;21661;50.794;-1.066;2022-08-01T07:34:01;20.50;99.90
35559;DHT22;21661;50.794;-1.066;2022-08-01T07:36:26;20.50;99.90
35559;DHT22;21661;50.794;-1.066;2022-08-01T07:38:52;20.50;99.90
35559;DHT22;21661;50.794;-1.066;2022-08-01T07:41:18;20.50;99.90
35559;DHT22;21661;50.794;-1.066;2022-08-01T07:43:43;20.40;99.90
35559;DHT22;21661;50.794;-1.066;2022-08-01T07:46:09;20.40;99.90
35559;DHT22;21661;50.794;-1.066;2022-08-01T07:48:35;20.40;99.90
35559;DHT22;21661;50.794;-1.066;2022-08-01T07:51:00;20.40;99.90
35559;DHT22;21661;50.794;-1.066;2022-08-01T07:53:26;20.40;99.90
35559;DHT22;21661;50.794;-1.066;2022-08-01T07:55:52;20.40;99.90
35559;DHT22;21661;50.794;-1.066;2022-08-01T07:58:17;20.50;99.90
35559;DHT22;21661;50.794;-1.066;2022-08-01T08:00:43;20.50;99.90
35559;DHT22;21661;50.794;-1.066;2022-08-01T08:03:09;20.50;99.90
35559;DHT22;21661;50.794;-1.066;2022-08-01T08:05:35;20.50;99.90
35559;DHT22;21661;50.794;-1.066;2022-08-01T08:08:08;20.60;99.90
35559;DHT22;21661;50.794;-1.066;2022-08-01T08:10:34;20.60;99.90
35559;DHT22;21661;50.794;-1.066;2022-08-01T08:13:00;20.60;99.90
35559;DHT22;21661;50.794;-1.066;2022-08-01T08:15:29;20.60;99.90
35559;DHT22;21661;50.794;-1.066;2022-08-01T08:17:55;20.60;99.90
35559;DHT22;21661;50.794;-1.066;2022-08-01T08:20:20;20.60;99.90
35559;DHT22;21661;50.794;-1.066;2022-08-01T08:22:52;20.60;99.90
35559;DHT22;21661;50.794;-1.066;2022-08-01T08:25:18;20.60;99.90
35559;DHT22;21661;50.794;-1.066;2022-08-01T08:27:45;20.70;99.90
35559;DHT22;21661;50.794;-1.066;2022-08-01T08:30:11;20.90;99.90
35559;DHT22;21661;50.794;-1.066;2022-08-01T08:32:37;21.00;99.90
35559;DHT22;21661;50.794;-1.066;2022-08-01T08:35:04;21.00;99.90
35559;DHT22;21661;50.794;-1.066;2022-08-01T08:37:30;21.00;99.90
35559;DHT22;21661;50.794;-1.066;2022-08-01T08:39:56;20.90;99.90
35559;DHT22;21661;50.794;-1.066;2022-08-01T08:42:22;21.10;99.90
35559;DHT22;21661;50.794;-1.066;2022-08-01T08:44:48;21.20;99.90
35559;DHT22;21661;50.794;-1.066;2022-08-01T08:47:14;21.30;99.90
35559;DHT22;21661;50.794;-1.066;2022-08-01T08:49:43;21.30;99.90
35559;DHT22;21661;50.794;-1.066;2022-08-01T08:52:10;21.50;99.90
35559;DHT22;21661;50.794;-1.066;2022-08-01T08:54:38;21.50;99.90
35559;DHT22;21661;50.794;-1.066;2022-08-01T08:57:04;21.50;99.90
35559;DHT22;21661;50.794;-1.066;2022-08-01T08:59:31;21.50;99.90
35559;DHT22;21661;50.794;-1.066;2022-08-01T09:01:57;21.40;99.90
35559;DHT22;21661;50.794;-1.066;2022-08-01T09:04:23;21.40;99.90
35559;DHT22;21661;50.794;-1.066;2022-08-01T09:06:49;21.50;99.90
35559;DHT22;21661;50.794;-1.066;2022-08-01T09:09:15;21.50;99.90
35559;DHT22;21661;50.794;-1.066;2022-08-01T09:11:41;21.40;99.90
35559;DHT22;21661;50.794;-1.066;2022-08-01T09:14:14;21.30;99.90
35559;DHT22;21661;50.794;-1.066;2022-08-01T09:16:42;21.30;99.90
35559;DHT22;21661;50.794;-1.066;2022-08-01T09:19:17;21.30;99.90
35559;DHT22;21661;50.794;-1.066;2022-08-01T09:22:00;21.30;99.90
35559;DHT22;21661;50.794;-1.066;2022-08-01T09:24:28;21.30;99.90
35559;DHT22;21661;50.794;-1.066;2022-08-01T09:26:54;21.30;99.90
35559;DHT22;21661;50.794;-1.066;2022-08-01T09:29:29;21.30;99.90
35559;DHT22;21661;50.794;-1.066;2022-08-01T09:31:55;21.30;99.90
35559;DHT22;21661;50.794;-1.066;2022-08-01T09:34:39;21.30;99.90
35559;DHT22;21661;50.794;-1.066;2022-08-01T09:37:05;21.40;99.90
35559;DHT22;21661;50.794;-1.066;2022-08-01T09:39:36;21.40;99.90
35559;DHT22;21661;50.794;-1.066;2022-08-01T09:42:25;21.40;99.90
35559;DHT22;21661;50.794;-1.066;2022-08-01T09:44:52;21.50;99.90
35559;DHT22;21661;50.794;-1.066;2022-08-01T09:47:19;21.50;99.90
35559;DHT22;21661;50.794;-1.066;2022-08-01T09:49:56;21.50;99.90
35559;DHT22;21661;50.794;-1.066;2022-08-01T09:52:24;21.60;99.90
35559;DHT22;21661;50.794;-1.066;2022-08-01T09:55:03;21.60;99.90
35559;DHT22;21661;50.794;-1.066;2022-08-01T09:57:29;21.60;99.90
35559;DHT22;21661;50.794;-1.066;2022-08-01T09:59:57;21.60;99.90
35559;DHT22;21661;50.794;-1.066;2022-08-01T10:02:28;21.60;99.90
35559;DHT22;21661;50.794;-1.066;2022-08-01T10:04:54;21.60;99.90
35559;DHT22;21661;50.794;-1.066;2022-08-01T10:07:20;21.60;99.90
35559;DHT22;21661;50.794;-1.066;2022-08-01T10:09:46;21.60;99.90
35559;DHT22;21661;50.794;-1.066;2022-08-01T10:12:15;21.50;99.90
35559;DHT22;21661;50.794;-1.066;2022-08-01T10:14:43;21.60;99.90
35559;DHT22;21661;50.794;-1.066;2022-08-01T10:17:13;21.60;99.90
35559;DHT22;21661;50.794;-1.066;2022-08-01T10:19:41;21.60;99.90
35559;DHT22;21661;50.794;-1.066;2022-08-01T10:22:12;21.50;99.90
35559;DHT22;21661;50.794;-1.066;2022-08-01T10:24:44;21.50;99.90
35559;DHT22;21661;50.794;-1.066;2022-08-01T10:27:11;21.60;99.90
35559;DHT22;21661;50.794;-1.066;2022-08-01T10:30:00;21.50;99.90
35559;DHT22;21661;50.794;-1.066;2022-08-01T10:32:33;21.70;99.90
35559;DHT22;21661;50.794;-1.066;2022-08-01T10:35:00;21.70;99.90
35559;DHT22;21661;50.794;-1.066;2022-08-01T10:37:26;21.80;99.90
35559;DHT22;21661;50.794;-1.066;2022-08-01T10:39:53;22.00;99.90
35559;DHT22;21661;50.794;-1.066;2022-08-01T10:42:19;22.10;99.90
35559;DHT22;21661;50.794;-1.066;2022-08-01T10:44:45;22.20;99.90
35559;DHT22;21661;50.794;-1.066;2022-08-01T10:47:20;22.30;99.90
35559;DHT22;21661;50.794;-1.066;2022-08-01T10:49:58;22.50;99.90
35559;DHT22;21661;50.794;-1.066;2022-08-01T10:52:27;22.50;99.90
35559;DHT22;21661;50.794;-1.066;2022-08-01T10:55:03;22.60;99.90
35559;DHT22;21661;50.794;-1.066;2022-08-01T10:57:43;22.80;99.90
35559;DHT22;21661;50.794;-1.066;2022-08-01T11:00:19;22.90;99.90
35559;DHT22;21661;50.794;-1.066;2022-08-01T11:03:02;22.80;99.90
35559;DHT22;21661;50.794;-1.066;2022-08-01T11:05:32;22.70;99.90
35559;DHT22;21661;50.794;-1.066;2022-08-01T11:08:01;22.70;99.90
35559;DHT22;21661;50.794;-1.066;2022-08-01T11:10:47;22.70;99.90
35559;DHT22;21661;50.794;-1.066;2022-08-01T11:13:13;22.60;99.90
35559;DHT22;21661;50.794;-1.066;2022-08-01T11:15:39;22.70;99.90
35559;DHT22;21661;50.794;-1.066;2022-08-01T11:18:30;22.80;99.90
35559;DHT22;21661;50.794;-1.066;2022-08-01T11:21:00;22.90;99.90
35559;DHT22;21661;50.794;-1.066;2022-08-01T11:23:30;23.00;99.90
35559;DHT22;21661;50.794;-1.066;2022-08-01T11:28:27;23.20;99.90
35559;DHT22;21661;50.794;-1.066;2022-08-01T11:44:04;23.50;99.90
35559;DHT22;21661;50.794;-1.066;2022-08-01T11:47:04;23.40;99.90
35559;DHT22;21661;50.794;-1.066;2022-08-01T11:49:49;23.30;99.90
35559;DHT22;21661;50.794;-1.066;2022-08-01T11:52:30;23.40;99.90
35559;DHT22;21661;50.794;-1.066;2022-08-01T11:57:28;23.60;99.90
35559;DHT22;21661;50.794;-1.066;2022-08-01T11:59:58;23.60;99.90
35559;DHT22;21661;50.794;-1.066;2022-08-01T12:02:26;23.60;99.90
35559;DHT22;21661;50.794;-1.066;2022-08-01T12:05:08;23.60;99.90
35559;DHT22;21661;50.794;-1.066;2022-08-01T12:07:36;23.60;99.90
35559;DHT22;21661;50.794;-1.066;2022-08-01T12:10:09;23.70;99.90
35559;DHT22;21661;50.794;-1.066;2022-08-01T12:12:37;23.70;99.90
35559;DHT22;21661;50.794;-1.066;2022-08-01T12:15:08;23.80;99.90
35559;DHT22;21661;50.794;-1.066;2022-08-01T12:17:36;23.90;99.90
35559;DHT22;21661;50.794;-1.066;2022-08-01T12:20:05;24.00;99.90
35559;DHT22;21661;50.794;-1.066;2022-08-01T12:22:31;24.10;99.90
35559;DHT22;21661;50.794;-1.066;2022-08-01T12:25:11;24.20;99.90
35559;DHT22;21661;50.794;-1.066;2022-08-01T12:27:39;24.20;99.90
35559;DHT22;21661;50.794;-1.066;2022-08-01T12:30:13;24.20;99.90
35559;DHT22;21661;50.794;-1.066;2022-08-01T12:32:41;24.10;99.90
35559;DHT22;21661;50.794;-1.066;2022-08-01T12:35:15;23.90;99.90
35559;DHT22;21661;50.794;-1.066;2022-08-01T12:40:17;23.90;99.90
35559;DHT22;21661;50.794;-1.066;2022-08-01T12:42:45;24.00;99.90
35559;DHT22;21661;50.794;-1.066;2022-08-01T12:45:17;24.10;99.90
35559;DHT22;21661;50.794;-1.066;2022-08-01T12:47:43;24.20;99.90
35559;DHT22;21661;50.794;-1.066;2022-08-01T12:50:14;24.20;99.90
35559;DHT22;21661;50.794;-1.066;2022-08-01T12:52:40;24.30;99.90
35559;DHT22;21661;50.794;-1.066;2022-08-01T12:55:17;24.40;99.90
35559;DHT22;21661;50.794;-1.066;2022-08-01T12:57:48;24.60;99.90
35559;DHT22;21661;50.794;-1.066;2022-08-01T13:00:23;24.80;99.90
35559;DHT22;21661;50.794;-1.066;2022-08-01T13:03:06;24.70;99.90
35559;DHT22;21661;50.794;-1.066;2022-08-01T13:05:43;24.50;99.90
35559;DHT22;21661;50.794;-1.066;2022-08-01T13:08:13;24.50;99.90
35559;DHT22;21661;50.794;-1.066;2022-08-01T13:10:40;24.50;99.90
35559;DHT22;21661;50.794;-1.066;2022-08-01T13:13:07;24.50;99.90
35559;DHT22;21661;50.794;-1.066;2022-08-01T13:15:35;24.30;99.90
35559;DHT22;21661;50.794;-1.066;2022-08-01T13:18:22;24.10;99.90
35559;DHT22;21661;50.794;-1.066;2022-08-01T13:20:48;24.00;99.90
35559;DHT22;21661;50.794;-1.066;2022-08-01T13:23:18;24.00;99.90
35559;DHT22;21661;50.794;-1.066;2022-08-01T13:25:53;24.10;99.90
35559;DHT22;21661;50.794;-1.066;2022-08-01T13:28:25;24.10;99.90
35559;DHT22;21661;50.794;-1.066;2022-08-01T13:33:21;24.00;99.90
35559;DHT22;21661;50.794;-1.066;2022-08-01T13:35:50;23.80;99.90
35559;DHT22;21661;50.794;-1.066;2022-08-01T13:38:15;23.90;99.90
35559;DHT22;21661;50.794;-1.066;2022-08-01T13:40:41;23.90;99.90
35559;DHT22;21661;50.794;-1.066;2022-08-01T13:43:07;23.90;99.90
35559;DHT22;21661;50.794;-1.066;2022-08-01T13:45:34;24.10;99.90
35559;DHT22;21661;50.794;-1.066;2022-08-01T13:48:00;24.40;99.90
35559;DHT22;21661;50.794;-1.066;2022-08-01T13:50:26;24.50;99.90
35559;DHT22;21661;50.794;-1.066;2022-08-01T13:52:53;24.60;99.90
35559;DHT22;21661;50.794;-1.066;2022-08-01T13:55:18;24.60;99.90
35559;DHT22;21661;50.794;-1.066;2022-08-01T13:57:44;24.70;99.90
35559;DHT22;21661;50.794;-1.066;2022-08-01T14:00:10;24.90;99.90
35559;DHT22;21661;50.794;-1.066;2022-08-01T14:02:36;25.10;99.90
35559;DHT22;21661;50.794;-1.066;2022-08-01T14:05:02;25.20;99.90
35559;DHT22;21661;50.794;-1.066;2022-08-01T14:07:28;25.10;99.90
35559;DHT22;21661;50.794;-1.066;2022-08-01T14:09:54;25.20;99.90
35559;DHT22;21661;50.794;-1.066;2022-08-01T14:12:19;25.00;99.90
35559;DHT22;21661;50.794;-1.066;2022-08-01T14:14:45;25.00;99.90
35559;DHT22;21661;50.794;-1.066;2022-08-01T14:17:11;24.90;99.90
35559;DHT22;21661;50.794;-1.066;2022-08-01T14:19:36;24.90;99.90
35559;DHT22;21661;50.794;-1.066;2022-08-01T14:22:02;24.80;99.90
35559;DHT22;21661;50.794;-1.066;2022-08-01T14:24:28;24.90;99.90
35559;DHT22;21661;50.794;-1.066;2022-08-01T14:26:53;24.90;99.90
35559;DHT22;21661;50.794;-1.066;2022-08-01T14:29:19;24.70;99.90
35559;DHT22;21661;50.794;-1.066;2022-08-01T14:31:45;24.70;99.90
35559;DHT22;21661;50.794;-1.066;2022-08-01T14:34:11;24.80;99.90
35559;DHT22;21661;50.794;-1.066;2022-08-01T14:36:38;24.90;99.90
35559;DHT22;21661;50.794;-1.066;2022-08-01T14:39:04;25.00;99.90
35559;DHT22;21661;50.794;-1.066;2022-08-01T14:41:29;25.00;99.90
35559;DHT22;21661;50.794;-1.066;2022-08-01T14:43:55;25.00;99.90
35559;DHT22;21661;50.794;-1.066;2022-08-01T14:46:20;24.90;99.90
35559;DHT22;21661;50.794;-1.066;2022-08-01T14:48:46;25.10;99.90
35559;DHT22;21661;50.794;-1.066;2022-08-01T14:51:12;25.20;99.90
35559;DHT22;21661;50.794;-1.066;2022-08-01T14:53:37;25.30;99.90
35559;DHT22;21661;50.794;-1.066;2022-08-01T14:56:05;25.40;99.90
35559;DHT22;21661;50.794;-1.066;2022-08-01T14:58:31;25.50;99.90
35559;DHT22;21661;50.794;-1.066;2022-08-01T15:00:57;25.60;99.90
35559;DHT22;21661;50.794;-1.066;2022-08-01T15:03:22;25.60;99.90
35559;DHT22;21661;50.794;-1.066;2022-08-01T15:05:48;25.40;99.90
35559;DHT22;21661;50.794;-1.066;2022-08-01T15:08:14;25.50;99.90
35559;DHT22;21661;50.794;-1.066;2022-08-01T15:10:40;25.50;99.90
35559;DHT22;21661;50.794;-1.066;2022-08-01T15:13:06;25.70;99.90
35559;DHT22;21661;50.794;-1.066;2022-08-01T15:15:31;25.70;99.90
35559;DHT22;21661;50.794;-1.066;2022-08-01T15:17:57;25.70;99.90
35559;DHT22;21661;50.794;-1.066;2022-08-01T15:20:23;25.80;99.90
35559;DHT22;21661;50.794;-1.066;2022-08-01T15:22:49;25.90;99.90
35559;DHT22;21661;50.794;-1.066;2022-08-01T15:25:15;25.90;99.90
35559;DHT22;21661;50.794;-1.066;2022-08-01T15:27:41;25.90;99.90
35559;DHT22;21661;50.794;-1.066;2022-08-01T15:30:07;25.80;99.90
35559;DHT22;21661;50.794;-1.066;2022-08-01T15:32:33;25.80;99.90
35559;DHT22;21661;50.794;-1.066;2022-08-01T15:34:58;25.70;99.90
35559;DHT22;21661;50.794;-1.066;2022-08-01T15:37:24;25.70;99.90
35559;DHT22;21661;50.794;-1.066;2022-08-01T15:39:50;25.70;99.90
35559;DHT22;21661;50.794;-1.066;2022-08-01T15:42:17;25.60;99.90
35559;DHT22;21661;50.794;-1.066;2022-08-01T15:44:43;25.60;99.90
35559;DHT22;21661;50.794;-1.066;2022-08-01T15:47:09;25.60;99.90
35559;DHT22;21661;50.794;-1.066;2022-08-01T15:49:36;25.60;99.90
35559;DHT22;21661;50.794;-1.066;2022-08-01T15:52:06;25.50;99.90
35559;DHT22;21661;50.794;-1.066;2022-08-01T15:54:33;25.50;99.90